sensor_id;sensor_type;location;lat;lon;timestamp;temperature;humidity
52731;DHT22;38624;53.242;6.974;2022-12-07T00:01:09;3.10;99.90
52731;DHT22;38624;53.242;6.974;2022-12-07T00:03:37;3.70;99.90
52731;DHT22;38624;53.242;6.974;2022-12-07T00:06:04;3.70;99.90
52731;DHT22;38624;53.242;6.974;2022-12-07T00:08:31;3.50;99.90
52731;DHT22;38624;53.242;6.974;2022-12-07T00:11:08;3.60;99.90
52731;DHT22;38624;53.242;6.974;2022-12-07T00:13:35;3.50;99.90
52731;DHT22;38624;53.242;6.974;2022-12-07T00:16:07;3.40;99.90
52731;DHT22;38624;53.242;6.974;2022-12-07T00:18:33;3.30;99.90
52731;DHT22;38624;53.242;6.974;2022-12-07T00:21:07;3.30;99.90
52731;DHT22;38624;53.242;6.974;2022-12-07T00:23:34;3.40;99.90
52731;DHT22;38624;53.242;6.974;2022-12-07T00:26:08;3.50;99.90
52731;DHT22;38624;53.242;6.974;2022-12-07T00:28:34;3.50;99.90
52731;DHT22;38624;53.242;6.974;2022-12-07T00:31:05;3.80;99.90
52731;DHT22;38624;53.242;6.974;2022-12-07T00:33:33;3.40;99.90
52731;DHT22;38624;53.242;6.974;2022-12-07T00:35:59;3.40;99.90
52731;DHT22;38624;53.242;6.974;2022-12-07T00:38:28;3.40;99.90
52731;DHT22;38624;53.242;6.974;2022-12-07T00:41:02;3.40;99.90
52731;DHT22;38624;53.242;6.974;2022-12-07T00:43:28;4.30;99.90
52731;DHT22;38624;53.242;6.974;2022-12-07T00:45:54;3.70;99.90
52731;DHT22;38624;53.242;6.974;2022-12-07T00:48:21;4.10;99.90
52731;DHT22;38624;53.242;6.974;2022-12-07T00:50:48;3.90;99.90
52731;DHT22;38624;53.242;6.974;2022-12-07T00:53:14;3.70;99.90
52731;DHT22;38624;53.242;6.974;2022-12-07T00:55:40;4.10;99.90
52731;DHT22;38624;53.242;6.974;2022-12-07T00:58:05;3.90;99.90
52731;DHT22;38624;53.242;6.974;2022-12-07T01:00:32;3.90;99.90
52731;DHT22;38624;53.242;6.974;2022-12-07T01:02:59;4.60;99.90
52731;DHT22;38624;53.242;6.974;2022-12-07T01:05:25;3.90;99.90
52731;DHT22;38624;53.242;6.974;2022-12-07T01:07:51;3.80;99.90
52731;DHT22;38624;53.242;6.974;2022-12-07T01:10:16;3.80;99.90
52731;DHT22;38624;53.242;6.974;2022-12-07T01:12:42;3.90;99.90
52731;DHT22;38624;53.242;6.974;2022-12-07T01:15:08;3.90;99.90
52731;DHT22;38624;53.242;6.974;2022-12-07T01:17:34;4.10;99.90
52731;DHT22;38624;53.242;6.974;2022-12-07T01:20:00;5.00;99.90
52731;DHT22;38624;53.242;6.974;2022-12-07T01:22:26;4.20;99.90
52731;DHT22;38624;53.242;6.974;2022-12-07T01:24:52;4.20;99.90
52731;DHT22;38624;53.242;6.974;2022-12-07T01:27:17;4.30;99.90
52731;DHT22;38624;53.242;6.974;2022-12-07T01:29:43;5.80;99.90
52731;DHT22;38624;53.242;6.974;2022-12-07T01:32:09;5.50;99.90
52731;DHT22;38624;53.242;6.974;2022-12-07T01:34:34;4.20;99.90
52731;DHT22;38624;53.242;6.974;2022-12-07T01:37:00;4.70;99.90
52731;DHT22;38624;53.242;6.974;2022-12-07T01:39:26;4.20;99.90
52731;DHT22;38624;53.242;6.974;2022-12-07T01:41:52;5.40;99.90
52731;DHT22;38624;53.242;6.974;2022-12-07T01:44:24;5.30;99.90
52731;DHT22;38624;53.242;6.974;2022-12-07T01:46:52;4.30;99.90
52731;DHT22;38624;53.242;6.974;2022-12-07T01:52:21;3.90;99.90
52731;DHT22;38624;53.242;6.974;2022-12-07T01:54:51;3.90;99.90
52731;DHT22;38624;53.242;6.974;2022-12-07T01:57:18;4.00;99.90
52731;DHT22;38624;53.242;6.974;2022-12-07T01:59:45;4.00;99.90
52731;DHT22;38624;53.242;6.974;2022-12-07T02:03:01;4.00;99.90
52731;DHT22;38624;53.242;6.974;2022-12-07T02:05:07;4.00;99.90
52731;DHT22;38624;53.242;6.974;2022-12-07T02:07:34;4.30;99.90
52731;DHT22;38624;53.242;6.974;2022-12-07T02:12:45;4.00;99.90
52731;DHT22;38624;53.242;6.974;2022-12-07T02:15:12;4.60;99.90
52731;DHT22;38624;53.242;6.974;2022-12-07T02:23:45;4.50;99.90
52731;DHT22;38624;53.242;6.974;2022-12-07T02:26:34;4.30;99.90
52731;DHT22;38624;53.242;6.974;2022-12-07T02:31:36;4.40;99.90
52731;DHT22;38624;53.242;6.974;2022-12-07T02:37:33;3.80;99.90
52731;DHT22;38624;53.242;6.974;2022-12-07T02:42:47;3.50;99.90
52731;DHT22;38624;53.242;6.974;2022-12-07T02:45:15;3.40;99.90
52731;DHT22;38624;53.242;6.974;2022-12-07T02:47:43;3.80;99.90
52731;DHT22;38624;53.242;6.974;2022-12-07T02:50:10;3.40;99.90
52731;DHT22;38624;53.242;6.974;2022-12-07T02:52:36;3.50;99.90
52731;DHT22;38624;53.242;6.974;2022-12-07T02:55:02;3.50;99.90
52731;DHT22;38624;53.242;6.974;2022-12-07T02:58:03;3.50;99.90
52731;DHT22;38624;53.242;6.974;2022-12-07T03:00:36;3.60;99.90
52731;DHT22;38624;53.242;6.974;2022-12-07T03:03:09;4.30;99.90
52731;DHT22;38624;53.242;6.974;2022-12-07T03:06:14;3.90;99.90
52731;DHT22;38624;53.242;6.974;2022-12-07T03:08:53;4.10;99.90
52731;DHT22;38624;53.242;6.974;2022-12-07T03:11:35;4.30;99.90
52731;DHT22;38624;53.242;6.974;2022-12-07T03:14:32;4.40;99.90
52731;DHT22;38624;53.242;6.974;2022-12-07T03:17:24;4.40;99.90
52731;DHT22;38624;53.242;6.974;2022-12-07T03:19:54;4.30;99.90
52731;DHT22;38624;53.242;6.974;2022-12-07T03:22:22;4.30;99.90
52731;DHT22;38624;53.242;6.974;2022-12-07T03:24:53;4.20;99.90
52731;DHT22;38624;53.242;6.974;2022-12-07T03:27:27;4.10;99.90
52731;DHT22;38624;53.242;6.974;2022-12-07T03:30:19;4.40;99.90
52731;DHT22;38624;53.242;6.974;2022-12-07T03:33:07;4.00;99.90
52731;DHT22;38624;53.242;6.974;2022-12-07T03:35:39;3.80;99.90
52731;DHT22;38624;53.242;6.974;2022-12-07T03:40:40;4.70;99.90
52731;DHT22;38624;53.242;6.974;2022-12-07T03:43:09;4.10;99.90
52731;DHT22;38624;53.242;6.974;2022-12-07T03:48:28;3.80;99.90
52731;DHT22;38624;53.242;6.974;2022-12-07T03:51:22;4.30;99.90
52731;DHT22;38624;53.242;6.974;2022-12-07T03:54:06;3.80;99.90
52731;DHT22;38624;53.242;6.974;2022-12-07T03:56:33;3.50;99.90
52731;DHT22;38624;53.242;6.974;2022-12-07T03:58:58;4.10;99.90
52731;DHT22;38624;53.242;6.974;2022-12-07T04:01:24;3.60;99.90
52731;DHT22;38624;53.242;6.974;2022-12-07T04:03:50;3.60;99.90
52731;DHT22;38624;53.242;6.974;2022-12-07T04:06:16;4.80;99.90
52731;DHT22;38624;53.242;6.974;2022-12-07T04:08:41;3.40;99.90
52731;DHT22;38624;53.242;6.974;2022-12-07T04:11:07;3.40;99.90
52731;DHT22;38624;53.242;6.974;2022-12-07T04:13:33;3.30;99.90
52731;DHT22;38624;53.242;6.974;2022-12-07T04:16:18;3.30;99.90
52731;DHT22;38624;53.242;6.974;2022-12-07T04:18:44;3.30;99.90
52731;DHT22;38624;53.242;6.974;2022-12-07T04:21:10;3.30;99.90
52731;DHT22;38624;53.242;6.974;2022-12-07T04:23:35;4.70;99.90
52731;DHT22;38624;53.242;6.974;2022-12-07T04:26:01;4.70;99.90
52731;DHT22;38624;53.242;6.974;2022-12-07T04:28:27;3.30;99.90
52731;DHT22;38624;53.242;6.974;2022-12-07T04:30:52;3.30;99.90
52731;DHT22;38624;53.242;6.974;2022-12-07T04:33:18;3.40;99.90
52731;DHT22;38624;53.242;6.974;2022-12-07T04:35:44;3.40;99.90
52731;DHT22;38624;53.242;6.974;2022-12-07T04:38:09;3.90;99.90
52731;DHT22;38624;53.242;6.974;2022-12-07T04:40:35;5.00;99.90
52731;DHT22;38624;53.242;6.974;2022-12-07T04:43:00;3.60;99.90
52731;DHT22;38624;53.242;6.974;2022-12-07T04:45:26;4.60;99.90
52731;DHT22;38624;53.242;6.974;2022-12-07T04:47:52;3.80;99.90
52731;DHT22;38624;53.242;6.974;2022-12-07T04:50:17;5.30;99.90
52731;DHT22;38624;53.242;6.974;2022-12-07T04:52:43;3.70;99.90
52731;DHT22;38624;53.242;6.974;2022-12-07T04:55:09;3.80;99.90
52731;DHT22;38624;53.242;6.974;2022-12-07T04:57:34;4.20;99.90
52731;DHT22;38624;53.242;6.974;2022-12-07T05:00:00;3.70;99.90
52731;DHT22;38624;53.242;6.974;2022-12-07T05:02:26;3.60;99.90
52731;DHT22;38624;53.242;6.974;2022-12-07T05:04:51;3.60;99.90
52731;DHT22;38624;53.242;6.974;2022-12-07T05:07:17;4.70;99.90
52731;DHT22;38624;53.242;6.974;2022-12-07T05:09:43;3.50;99.90
52731;DHT22;38624;53.242;6.974;2022-12-07T05:12:08;3.80;99.90
52731;DHT22;38624;53.242;6.974;2022-12-07T05:14:34;3.50;99.90
52731;DHT22;38624;53.242;6.974;2022-12-07T05:17:00;3.80;99.90
52731;DHT22;38624;53.242;6.974;2022-12-07T05:19:25;3.30;99.90
52731;DHT22;38624;53.242;6.974;2022-12-07T05:21:52;4.20;99.90
52731;DHT22;38624;53.242;6.974;2022-12-07T05:24:17;3.20;99.90
52731;DHT22;38624;53.242;6.974;2022-12-07T05:26:44;3.20;99.90
52731;DHT22;38624;53.242;6.974;2022-12-07T05:29:15;3.10;99.90
52731;DHT22;38624;53.242;6.974;2022-12-07T05:31:42;3.10;99.90
52731;DHT22;38624;53.242;6.974;2022-12-07T05:34:08;3.30;99.90
52731;DHT22;38624;53.242;6.974;2022-12-07T05:36:34;3.40;99.90
52731;DHT22;38624;53.242;6.974;2022-12-07T05:38:59;3.30;99.90
52731;DHT22;38624;53.242;6.974;2022-12-07T05:41:25;3.20;99.90
52731;DHT22;38624;53.242;6.974;2022-12-07T05:44:10;3.10;99.90
52731;DHT22;38624;53.242;6.974;2022-12-07T05:46:35;3.10;99.90
52731;DHT22;38624;53.242;6.974;2022-12-07T05:49:02;3.30;99.90
52731;DHT22;38624;53.242;6.974;2022-12-07T05:51:28;3.20;99.90
52731;DHT22;38624;53.242;6.974;2022-12-07T05:53:53;3.30;99.90
52731;DHT22;38624;53.242;6.974;2022-12-07T05:56:19;3.20;99.90
52731;DHT22;38624;53.242;6.974;2022-12-07T05:58:45;3.30;99.90
52731;DHT22;38624;53.242;6.974;2022-12-07T06:01:29;3.20;99.90
52731;DHT22;38624;53.242;6.974;2022-12-07T06:03:54;3.10;99.90
52731;DHT22;38624;53.242;6.974;2022-12-07T06:06:20;3.10;99.90
52731;DHT22;38624;53.242;6.974;2022-12-07T06:08:46;3.20;99.90
52731;DHT22;38624;53.242;6.974;2022-12-07T06:11:11;3.90;99.90
52731;DHT22;38624;53.242;6.974;2022-12-07T06:13:56;3.00;99.90
52731;DHT22;38624;53.242;6.974;2022-12-07T06:16:21;4.30;99.90
52731;DHT22;38624;53.242;6.974;2022-12-07T06:18:48;4.60;99.90
52731;DHT22;38624;53.242;6.974;2022-12-07T06:21:14;2.90;99.90
52731;DHT22;38624;53.242;6.974;2022-12-07T06:23:40;3.00;99.90
52731;DHT22;38624;53.242;6.974;2022-12-07T06:26:05;3.00;99.90
52731;DHT22;38624;53.242;6.974;2022-12-07T06:28:31;3.00;99.90
52731;DHT22;38624;53.242;6.974;2022-12-07T06:30:58;3.30;99.90
52731;DHT22;38624;53.242;6.974;2022-12-07T06:33:24;3.20;99.90
52731;DHT22;38624;53.242;6.974;2022-12-07T06:35:50;4.80;99.90
52731;DHT22;38624;53.242;6.974;2022-12-07T06:38:16;3.40;99.90
52731;DHT22;38624;53.242;6.974;2022-12-07T06:40:42;3.50;99.90
52731;DHT22;38624;53.242;6.974;2022-12-07T06:43:07;3.60;99.90
52731;DHT22;38624;53.242;6.974;2022-12-07T06:45:33;3.30;99.90
52731;DHT22;38624;53.242;6.974;2022-12-07T06:47:59;3.20;99.90
52731;DHT22;38624;53.242;6.974;2022-12-07T06:50:24;3.20;99.90
52731;DHT22;38624;53.242;6.974;2022-12-07T06:52:51;3.00;99.90
52731;DHT22;38624;53.242;6.974;2022-12-07T06:55:16;3.40;99.90
52731;DHT22;38624;53.242;6.974;2022-12-07T06:57:42;2.80;99.90
52731;DHT22;38624;53.242;6.974;2022-12-07T07:00:09;3.00;99.90
52731;DHT22;38624;53.242;6.974;2022-12-07T07:02:34;2.80;99.90
52731;DHT22;38624;53.242;6.974;2022-12-07T07:05:00;3.40;99.90
52731;DHT22;38624;53.242;6.974;2022-12-07T07:07:26;2.60;99.90
52731;DHT22;38624;53.242;6.974;2022-12-07T07:09:52;2.60;99.90
52731;DHT22;38624;53.242;6.974;2022-12-07T07:12:17;2.50;99.90
52731;DHT22;38624;53.242;6.974;2022-12-07T07:14:43;3.90;99.90
52731;DHT22;38624;53.242;6.974;2022-12-07T07:17:09;2.60;99.90
52731;DHT22;38624;53.242;6.974;2022-12-07T07:19:34;2.80;99.90
52731;DHT22;38624;53.242;6.974;2022-12-07T07:22:00;2.60;99.90
52731;DHT22;38624;53.242;6.974;2022-12-07T07:24:26;2.60;99.90
52731;DHT22;38624;53.242;6.974;2022-12-07T07:26:51;3.70;99.90
52731;DHT22;38624;53.242;6.974;2022-12-07T07:29:17;4.10;99.90
52731;DHT22;38624;53.242;6.974;2022-12-07T07:31:43;3.40;99.90
52731;DHT22;38624;53.242;6.974;2022-12-07T07:34:08;2.50;99.90
52731;DHT22;38624;53.242;6.974;2022-12-07T07:36:34;2.50;99.90
52731;DHT22;38624;53.242;6.974;2022-12-07T07:39:00;3.00;99.90
52731;DHT22;38624;53.242;6.974;2022-12-07T07:41:25;2.60;99.90
52731;DHT22;38624;53.242;6.974;2022-12-07T07:43:51;2.70;99.90
52731;DHT22;38624;53.242;6.974;2022-12-07T07:46:17;2.60;99.90
52731;DHT22;38624;53.242;6.974;2022-12-07T07:48:42;2.80;99.90
52731;DHT22;38624;53.242;6.974;2022-12-07T07:51:08;2.70;99.90
52731;DHT22;38624;53.242;6.974;2022-12-07T07:53:34;2.70;99.90
52731;DHT22;38624;53.242;6.974;2022-12-07T07:56:00;2.70;99.90
52731;DHT22;38624;53.242;6.974;2022-12-07T07:58:25;4.30;99.90
52731;DHT22;38624;53.242;6.974;2022-12-07T08:00:51;3.30;99.90
52731;DHT22;38624;53.242;6.974;2022-12-07T08:03:17;2.80;99.90
52731;DHT22;38624;53.242;6.974;2022-12-07T08:05:43;2.80;99.90
52731;DHT22;38624;53.242;6.974;2022-12-07T08:08:08;2.80;99.90
52731;DHT22;38624;53.242;6.974;2022-12-07T08:10:34;3.60;99.90
52731;DHT22;38624;53.242;6.974;2022-12-07T08:13:00;3.80;99.90
52731;DHT22;38624;53.242;6.974;2022-12-07T08:15:43;2.90;99.90
52731;DHT22;38624;53.242;6.974;2022-12-07T08:18:10;2.80;99.90
52731;DHT22;38624;53.242;6.974;2022-12-07T08:20:37;3.30;99.90
52731;DHT22;38624;53.242;6.974;2022-12-07T08:23:03;4.30;99.90
52731;DHT22;38624;53.242;6.974;2022-12-07T08:25:29;3.00;99.90
52731;DHT22;38624;53.242;6.974;2022-12-07T08:27:56;3.50;99.90
52731;DHT22;38624;53.242;6.974;2022-12-07T08:30:21;3.90;99.90
52731;DHT22;38624;53.242;6.974;2022-12-07T08:32:48;3.40;99.90
52731;DHT22;38624;53.242;6.974;2022-12-07T08:35:15;3.90;99.90
52731;DHT22;38624;53.242;6.974;2022-12-07T08:37:41;4.50;99.90
52731;DHT22;38624;53.242;6.974;2022-12-07T08:40:08;3.40;99.90
52731;DHT22;38624;53.242;6.974;2022-12-07T08:42:34;3.40;99.90
52731;DHT22;38624;53.242;6.974;2022-12-07T08:45:08;3.50;99.90
52731;DHT22;38624;53.242;6.974;2022-12-07T08:47:45;3.50;99.90
52731;DHT22;38624;53.242;6.974;2022-12-07T08:50:12;3.70;99.90
52731;DHT22;38624;53.242;6.974;2022-12-07T08:52:40;4.70;99.90
52731;DHT22;38624;53.242;6.974;2022-12-07T08:55:08;3.90;99.90
52731;DHT22;38624;53.242;6.974;2022-12-07T08:57:35;4.00;99.90
52731;DHT22;38624;53.242;6.974;2022-12-07T09:00:02;4.60;99.90
52731;DHT22;38624;53.242;6.974;2022-12-07T09:02:28;4.20;99.90
52731;DHT22;38624;53.242;6.974;2022-12-07T09:04:55;4.90;99.90
52731;DHT22;38624;53.242;6.974;2022-12-07T09:07:21;4.30;99.90
52731;DHT22;38624;53.242;6.974;2022-12-07T09:09:46;4.30;99.90
52731;DHT22;38624;53.242;6.974;2022-12-07T09:12:12;4.50;99.90
52731;DHT22;38624;53.242;6.974;2022-12-07T09:14:38;4.60;99.90
52731;DHT22;38624;53.242;6.974;2022-12-07T09:17:07;4.10;99.90
52731;DHT22;38624;53.242;6.974;2022-12-07T09:19:33;4.10;99.90
52731;DHT22;38624;53.242;6.974;2022-12-07T09:21:59;4.10;99.90
52731;DHT22;38624;53.242;6.974;2022-12-07T09:24:25;4.20;99.90
52731;DHT22;38624;53.242;6.974;2022-12-07T09:26:50;4.50;99.90
52731;DHT22;38624;53.242;6.974;2022-12-07T09:29:16;4.50;99.90
52731;DHT22;38624;53.242;6.974;2022-12-07T09:31:41;4.70;99.90
52731;DHT22;38624;53.242;6.974;2022-12-07T09:34:07;4.80;99.90
52731;DHT22;38624;53.242;6.974;2022-12-07T09:36:33;5.20;99.90
52731;DHT22;38624;53.242;6.974;2022-12-07T09:38:59;5.10;99.90
52731;DHT22;38624;53.242;6.974;2022-12-07T09:41:25;5.20;99.90
52731;DHT22;38624;53.242;6.974;2022-12-07T09:43:52;5.10;99.90
52731;DHT22;38624;53.242;6.974;2022-12-07T09:46:19;5.20;99.90
52731;DHT22;38624;53.242;6.974;2022-12-07T09:48:45;5.30;99.90
52731;DHT22;38624;53.242;6.974;2022-12-07T09:51:24;5.40;99.90
52731;DHT22;38624;53.242;6.974;2022-12-07T09:53:54;5.60;99.90
52731;DHT22;38624;53.242;6.974;2022-12-07T09:56:21;6.00;99.90
52731;DHT22;38624;53.242;6.974;2022-12-07T09:58:48;5.80;99.90
52731;DHT22;38624;53.242;6.974;2022-12-07T10:01:17;5.70;99.90
52731;DHT22;38624;53.242;6.974;2022-12-07T10:04:12;5.80;99.90
52731;DHT22;38624;53.242;6.974;2022-12-07T10:06:39;5.70;99.90
52731;DHT22;38624;53.242;6.974;2022-12-07T10:09:13;5.70;99.90
52731;DHT22;38624;53.242;6.974;2022-12-07T10:12:08;5.60;99.90
52731;DHT22;38624;53.242;6.974;2022-12-07T10:14:38;5.60;99.90
52731;DHT22;38624;53.242;6.974;2022-12-07T10:17:30;5.60;99.90
52731;DHT22;38624;53.242;6.974;2022-12-07T10:20:20;5.70;99.90
52731;DHT22;38624;53.242;6.974;2022-12-07T10:23:04;5.80;99.90
52731;DHT22;38624;53.242;6.974;2022-12-07T10:25:35;6.00;99.90
52731;DHT22;38624;53.242;6.974;2022-12-07T10:28:16;6.60;99.90
52731;DHT22;38624;53.242;6.974;2022-12-07T10:30:58;6.00;99.90
52731;DHT22;38624;53.242;6.974;2022-12-07T10:33:40;6.10;99.90
52731;DHT22;38624;53.242;6.974;2022-12-07T10:36:23;6.20;99.90
52731;DHT22;38624;53.242;6.974;2022-12-07T10:41:34;6.40;99.90
52731;DHT22;38624;53.242;6.974;2022-12-07T10:44:00;6.00;99.90
52731;DHT22;38624;53.242;6.974;2022-12-07T10:50:02;6.00;99.90
52731;DHT22;38624;53.242;6.974;2022-12-07T11:03:49;5.90;99.90
52731;DHT22;38624;53.242;6.974;2022-12-07T11:09:16;6.00;99.90
52731;DHT22;38624;53.242;6.974;2022-12-07T11:11:57;6.10;99.90
52731;DHT22;38624;53.242;6.974;2022-12-07T11:30:29;6.90;99.90
52731;DHT22;38624;53.242;6.974;2022-12-07T11:36:02;6.90;99.90
52731;DHT22;38624;53.242;6.974;2022-12-07T11:38:53;7.00;99.90
52731;DHT22;38624;53.242;6.974;2022-12-07T11:41:23;7.10;99.90
52731;DHT22;38624;53.242;6.974;2022-12-07T11:46:31;7.70;99.90
52731;DHT22;38624;53.242;6.974;2022-12-07T11:49:12;8.10;99.90
52731;DHT22;38624;53.242;6.974;2022-12-07T11:51:41;8.50;99.90
52731;DHT22;38624;53.242;6.974;2022-12-07T11:54:21;8.80;99.90
52731;DHT22;38624;53.242;6.974;2022-12-07T11:56:51;8.60;99.90
52731;DHT22;38624;53.242;6.974;2022-12-07T11:59:28;7.90;99.90
52731;DHT22;38624;53.242;6.974;2022-12-07T12:02:11;8.00;99.90
52731;DHT22;38624;53.242;6.974;2022-12-07T12:04:49;7.80;99.90
52731;DHT22;38624;53.242;6.974;2022-12-07T12:07:21;7.70;99.90
52731;DHT22;38624;53.242;6.974;2022-12-07T12:09:58;7.70;99.90
52731;DHT22;38624;53.242;6.974;2022-12-07T12:18:06;7.10;99.90
52731;DHT22;38624;53.242;6.974;2022-12-07T12:20:50;7.00;99.90
52731;DHT22;38624;53.242;6.974;2022-12-07T12:23:28;6.80;99.90
52731;DHT22;38624;53.242;6.974;2022-12-07T12:26:02;6.80;99.90
52731;DHT22;38624;53.242;6.974;2022-12-07T12:31:13;6.80;99.90
52731;DHT22;38624;53.242;6.974;2022-12-07T12:33:48;6.90;99.90
52731;DHT22;38624;53.242;6.974;2022-12-07T12:36:44;7.00;99.90
52731;DHT22;38624;53.242;6.974;2022-12-07T12:39:11;6.90;99.90
52731;DHT22;38624;53.242;6.974;2022-12-07T12:51:46;9.00;99.90
52731;DHT22;38624;53.242;6.974;2022-12-07T12:59:36;8.40;99.90
52731;DHT22;38624;53.242;6.974;2022-12-07T13:02:36;8.10;99.90
52731;DHT22;38624;53.242;6.974;2022-12-07T13:31:49;7.40;99.90
52731;DHT22;38624;53.242;6.974;2022-12-07T13:34:34;7.20;99.90
52731;DHT22;38624;53.242;6.974;2022-12-07T13:37:25;7.00;99.90
52731;DHT22;38624;53.242;6.974;2022-12-07T13:39:55;7.00;99.90
52731;DHT22;38624;53.242;6.974;2022-12-07T13:42:34;6.80;99.90
52731;DHT22;38624;53.242;6.974;2022-12-07T13:45:20;6.70;99.90
52731;DHT22;38624;53.242;6.974;2022-12-07T13:47:52;6.40;99.90
52731;DHT22;38624;53.242;6.974;2022-12-07T13:50:30;6.20;99.90
52731;DHT22;38624;53.242;6.974;2022-12-07T13:52:58;6.00;99.90
52731;DHT22;38624;53.242;6.974;2022-12-07T13:55:25;5.70;99.90
52731;DHT22;38624;53.242;6.974;2022-12-07T13:57:52;5.30;99.90
52731;DHT22;38624;53.242;6.974;2022-12-07T14:00:27;5.10;99.90
52731;DHT22;38624;53.242;6.974;2022-12-07T14:03:02;4.90;99.90
52731;DHT22;38624;53.242;6.974;2022-12-07T14:05:30;4.90;99.90
52731;DHT22;38624;53.242;6.974;2022-12-07T14:10:29;4.70;99.90
52731;DHT22;38624;53.242;6.974;2022-12-07T14:12:55;4.80;99.90
52731;DHT22;38624;53.242;6.974;2022-12-07T14:15:24;5.70;99.90
52731;DHT22;38624;53.242;6.974;2022-12-07T14:17:52;4.90;99.90
52731;DHT22;38624;53.242;6.974;2022-12-07T14:20:40;6.10;99.90
52731;DHT22;38624;53.242;6.974;2022-12-07T14:23:21;4.90;99.90
52731;DHT22;38624;53.242;6.974;2022-12-07T14:25:51;4.90;99.90
52731;DHT22;38624;53.242;6.974;2022-12-07T14:28:34;4.80;99.90
52731;DHT22;38624;53.242;6.974;2022-12-07T14:31:01;5.50;99.90
52731;DHT22;38624;53.242;6.974;2022-12-07T14:33:28;5.80;99.90
52731;DHT22;38624;53.242;6.974;2022-12-07T14:35:54;5.60;99.90
52731;DHT22;38624;53.242;6.974;2022-12-07T14:38:21;5.20;99.90
52731;DHT22;38624;53.242;6.974;2022-12-07T14:40:47;5.10;99.90
52731;DHT22;38624;53.242;6.974;2022-12-07T14:43:16;4.80;99.90
52731;DHT22;38624;53.242;6.974;2022-12-07T14:45:42;4.90;99.90
52731;DHT22;38624;53.242;6.974;2022-12-07T14:48:11;5.00;99.90
52731;DHT22;38624;53.242;6.974;2022-12-07T14:50:41;5.30;99.90
52731;DHT22;38624;53.242;6.974;2022-12-07T14:53:18;4.90;99.90
52731;DHT22;38624;53.242;6.974;2022-12-07T14:55:47;4.80;99.90
52731;DHT22;38624;53.242;6.974;2022-12-07T14:58:15;5.20;99.90
52731;DHT22;38624;53.242;6.974;2022-12-07T15:00:41;5.70;99.90
52731;DHT22;38624;53.242;6.974;2022-12-07T15:03:06;4.70;99.90
52731;DHT22;38624;53.242;6.974;2022-12-07T15:05:33;5.10;99.90
52731;DHT22;38624;53.242;6.974;2022-12-07T15:07:59;4.60;99.90
52731;DHT22;38624;53.242;6.974;2022-12-07T15:10:31;4.70;99.90
52731;DHT22;38624;53.242;6.974;2022-12-07T15:12:58;4.40;99.90
52731;DHT22;38624;53.242;6.974;2022-12-07T15:15:44;4.70;99.90
52731;DHT22;38624;53.242;6.974;2022-12-07T15:18:09;5.10;99.90
52731;DHT22;38624;53.242;6.974;2022-12-07T15:20:35;4.40;99.90
52731;DHT22;38624;53.242;6.974;2022-12-07T15:23:01;4.30;99.90
52731;DHT22;38624;53.242;6.974;2022-12-07T15:25:26;4.40;99.90
52731;DHT22;38624;53.242;6.974;2022-12-07T15:27:52;4.50;99.90
52731;DHT22;38624;53.242;6.974;2022-12-07T15:30:18;4.40;99.90
52731;DHT22;38624;53.242;6.974;2022-12-07T15:32:43;4.30;99.90
52731;DHT22;38624;53.242;6.974;2022-12-07T15:35:09;5.70;99.90
52731;DHT22;38624;53.242;6.974;2022-12-07T15:37:35;4.20;99.90
52731;DHT22;38624;53.242;6.974;2022-12-07T15:40:01;4.80;99.90
52731;DHT22;38624;53.242;6.974;2022-12-07T15:42:26;4.10;99.90
52731;DHT22;38624;53.242;6.974;2022-12-07T15:44:52;3.90;99.90
52731;DHT22;38624;53.242;6.974;2022-12-07T15:47:38;3.70;99.90
52731;DHT22;38624;53.242;6.974;2022-12-07T15:50:08;3.70;99.90
52731;DHT22;38624;53.242;6.974;2022-12-07T15:52:34;3.60;99.90
52731;DHT22;38624;53.242;6.974;2022-12-07T15:54:59;3.40;99.90
52731;DHT22;38624;53.242;6.974;2022-12-07T15:57:26;3.30;99.90
52731;DHT22;38624;53.242;6.974;2022-12-07T15:59:52;3.30;99.90
52731;DHT22;38624;53.242;6.974;2022-12-07T16:02:18;3.80;99.90
52731;DHT22;38624;53.242;6.974;2022-12-07T16:04:44;3.40;99.90
52731;DHT22;38624;53.242;6.974;2022-12-07T16:07:10;3.40;99.90
52731;DHT22;38624;53.242;6.974;2022-12-07T16:09:37;3.50;99.90
52731;DHT22;38624;53.242;6.974;2022-12-07T16:12:03;4.40;99.90
52731;DHT22;38624;53.242;6.974;2022-12-07T16:14:29;3.40;99.90
52731;DHT22;38624;53.242;6.974;2022-12-07T16:16:57;5.00;99.90
52731;DHT22;38624;53.242;6.974;2022-12-07T16:19:23;3.40;99.90
52731;DHT22;38624;53.242;6.974;2022-12-07T16:21:49;3.60;99.90
52731;DHT22;38624;53.242;6.974;2022-12-07T16:24:14;3.60;99.90
52731;DHT22;38624;53.242;6.974;2022-12-07T16:26:41;3.60;99.90
52731;DHT22;38624;53.242;6.974;2022-12-07T16:29:11;3.40;99.90
52731;DHT22;38624;53.242;6.974;2022-12-07T16:31:37;3.30;99.90
52731;DHT22;38624;53.242;6.974;2022-12-07T16:34:02;3.20;99.90
52731;DHT22;38624;53.242;6.974;2022-12-07T16:36:28;3.00;99.90
52731;DHT22;38624;53.242;6.974;2022-12-07T16:38:54;2.90;99.90
52731;DHT22;38624;53.242;6.974;2022-12-07T16:41:20;2.90;99.90
52731;DHT22;38624;53.242;6.974;2022-12-07T16:43:47;2.80;99.90
52731;DHT22;38624;53.242;6.974;2022-12-07T16:46:12;3.60;99.90
52731;DHT22;38624;53.242;6.974;2022-12-07T16:48:39;2.60;99.90
52731;DHT22;38624;53.242;6.974;2022-12-07T16:51:07;2.60;99.90
52731;DHT22;38624;53.242;6.974;2022-12-07T16:53:35;2.60;99.90
52731;DHT22;38624;53.242;6.974;2022-12-07T16:56:01;2.60;99.90
52731;DHT22;38624;53.242;6.974;2022-12-07T16:58:27;2.40;99.90
52731;DHT22;38624;53.242;6.974;2022-12-07T17:00:53;2.90;99.90
52731;DHT22;38624;53.242;6.974;2022-12-07T17:03:19;2.40;99.90
52731;DHT22;38624;53.242;6.974;2022-12-07T17:05:45;2.70;99.90
52731;DHT22;38624;53.242;6.974;2022-12-07T17:08:13;3.70;99.90
52731;DHT22;38624;53.242;6.974;2022-12-07T17:10:41;3.30;99.90
52731;DHT22;38624;53.242;6.974;2022-12-07T17:13:07;3.20;99.90
52731;DHT22;38624;53.242;6.974;2022-12-07T17:16:03;2.20;99.90
52731;DHT22;38624;53.242;6.974;2022-12-07T17:18:30;2.30;99.90
52731;DHT22;38624;53.242;6.974;2022-12-07T17:21:03;3.00;99.90
52731;DHT22;38624;53.242;6.974;2022-12-07T17:23:29;2.40;99.90
52731;DHT22;38624;53.242;6.974;2022-12-07T17:25:55;2.40;99.90
52731;DHT22;38624;53.242;6.974;2022-12-07T17:28:21;2.60;99.90
52731;DHT22;38624;53.242;6.974;2022-12-07T17:30:47;3.00;99.90
52731;DHT22;38624;53.242;6.974;2022-12-07T17:33:12;2.90;99.90
52731;DHT22;38624;53.242;6.974;2022-12-07T17:35:38;2.50;99.90
52731;DHT22;38624;53.242;6.974;2022-12-07T17:38:04;2.50;99.90
52731;DHT22;38624;53.242;6.974;2022-12-07T17:40:30;4.00;99.90
52731;DHT22;38624;53.242;6.974;2022-12-07T17:42:55;2.60;99.90
52731;DHT22;38624;53.242;6.974;2022-12-07T17:45:21;2.80;99.90
52731;DHT22;38624;53.242;6.974;2022-12-07T17:47:47;4.10;99.90
52731;DHT22;38624;53.242;6.974;2022-12-07T17:50:12;2.80;99.90
52731;DHT22;38624;53.242;6.974;2022-12-07T17:52:40;2.80;99.90
52731;DHT22;38624;53.242;6.974;2022-12-07T17:55:25;3.50;99.90
52731;DHT22;38624;53.242;6.974;2022-12-07T17:57:50;3.10;99.90
52731;DHT22;38624;53.242;6.974;2022-12-07T18:00:16;4.00;99.90